Time;durP1;ratioP1;P1;durP2;ratioP2;P2;SDS_P1;SDS_P2;PMS_P1;PMS_P2;Temp;Humidity;BMP_temperature;BMP_pressure;BME280_temperature;BME280_humidity;BME280_pressure;Samples;Min_cycle;Max_cycle;Signal;HPM_P1;HPM_P2
2022/10/01 00:00:23;;;;;;;8.57;7.67;;;;;;;;;;5048873;28;20202;-81
2022/10/01 00:02:49;;;;;;;10.93;7.97;;;;;;;;;;5076115;28;20209;-80
2022/10/01 00:05:15;;;;;;;8.60;7.10;;;;;;;;;;5059982;28;20211;-81
2022/10/01 00:07:42;;;;;;;8.47;7.40;;;;;;;;;;5058110;28;20183;-83
2022/10/01 00:10:09;;;;;;;8.23;7.43;;;;;;;;;;5058960;28;20321;-83
2022/10/01 00:12:35;;;;;;;8.90;8.00;;;;;;;;;;5076057;28;20233;-83
2022/10/01 00:15:02;;;;;;;9.53;7.87;;;;;;;;;;5058754;28;20195;-84
2022/10/01 00:17:28;;;;;;;11.03;8.07;;;;;;;;;;5075514;28;20183;-83
2022/10/01 00:19:54;;;;;;;9.40;8.43;;;;;;;;;;5075579;28;20183;-83
2022/10/01 00:22:20;;;;;;;9.07;8.17;;;;;;;;;;5055532;28;20275;-83
2022/10/01 00:24:47;;;;;;;10.53;8.70;;;;;;;;;;5050390;28;20291;-83
2022/10/01 00:27:13;;;;;;;9.23;8.27;;;;;;;;;;5088435;28;20241;-83
2022/10/01 00:29:40;;;;;;;9.20;7.80;;;;;;;;;;5076625;28;20238;-83
2022/10/01 00:32:06;;;;;;;8.40;7.67;;;;;;;;;;5074984;28;20175;-83
2022/10/01 00:34:32;;;;;;;8.73;7.90;;;;;;;;;;5055474;28;20237;-83
2022/10/01 00:36:58;;;;;;;11.23;8.30;;;;;;;;;;5067813;28;20187;-84
2022/10/01 00:39:24;;;;;;;9.80;8.80;;;;;;;;;;5067844;28;20278;-83
2022/10/01 00:41:51;;;;;;;10.33;9.27;;;;;;;;;;5067377;28;20237;-83
2022/10/01 00:44:31;;;;;;;9.57;8.60;;;;;;;;;;5065286;28;20195;-83
2022/10/01 00:47:01;;;;;;;11.43;9.37;;;;;;;;;;5063112;28;20210;-83
2022/10/01 00:49:30;;;;;;;10.07;9.07;;;;;;;;;;5065718;28;20190;-83
2022/10/01 00:51:58;;;;;;;9.90;8.90;;;;;;;;;;5065250;28;20183;-83
2022/10/01 00:54:46;;;;;;;9.43;8.07;;;;;;;;;;5065185;28;20179;-83
2022/10/01 00:57:14;;;;;;;10.23;9.10;;;;;;;;;;5065261;28;20203;-83
2022/10/01 00:59:40;;;;;;;12.73;8.80;;;;;;;;;;5067405;28;20187;-83
2022/10/01 01:02:06;;;;;;;13.17;9.83;;;;;;;;;;5049740;28;20187;-83
2022/10/01 01:04:32;;;;;;;12.03;9.83;;;;;;;;;;5065358;28;20196;-83
2022/10/01 01:07:03;;;;;;;10.43;9.30;;;;;;;;;;5047790;28;20183;-83
2022/10/01 01:09:32;;;;;;;11.73;9.37;;;;;;;;;;5072560;28;20234;-83
2022/10/01 01:12:06;;;;;;;11.07;9.57;;;;;;;;;;5064696;28;20266;-83
2022/10/01 01:14:41;;;;;;;11.27;9.90;;;;;;;;;;5086909;28;20225;-82
2022/10/01 01:17:10;;;;;;;12.13;9.30;;;;;;;;;;5058808;28;20194;-83
2022/10/01 01:20:06;;;;;;;12.53;10.00;;;;;;;;;;5074530;28;20187;-90
2022/10/01 01:22:35;;;;;;;11.90;10.23;;;;;;;;;;5054619;28;20179;-87
2022/10/01 01:25:11;;;;;;;11.53;9.80;;;;;;;;;;5071903;28;20207;-83
2022/10/01 01:27:42;;;;;;;11.10;9.60;;;;;;;;;;5073857;28;20183;-84
2022/10/01 01:30:13;;;;;;;11.13;9.90;;;;;;;;;;5073899;28;20225;-84
2022/10/01 01:33:02;;;;;;;13.17;9.50;;;;;;;;;;5074660;28;20194;-83
2022/10/01 01:35:40;;;;;;;11.23;9.63;;;;;;;;;;5075399;28;20183;-84
2022/10/01 01:38:15;;;;;;;12.17;9.13;;;;;;;;;;5074489;28;20268;-84
2022/10/01 01:40:42;;;;;;;11.13;9.00;;;;;;;;;;5074075;28;20321;-88
2022/10/01 01:43:12;;;;;;;12.23;9.23;;;;;;;;;;5074213;28;20245;-88
2022/10/01 01:45:39;;;;;;;12.70;9.53;;;;;;;;;;5073848;28;20211;-88
2022/10/01 01:48:07;;;;;;;10.33;8.97;;;;;;;;;;5074770;28;20175;-88
2022/10/01 01:50:37;;;;;;;11.13;8.67;;;;;;;;;;5074157;28;20652;-83
2022/10/01 01:53:03;;;;;;;10.27;9.27;;;;;;;;;;5075055;28;20221;-83
2022/10/01 01:55:30;;;;;;;10.87;9.20;;;;;;;;;;5053979;28;20198;-83
2022/10/01 01:57:57;;;;;;;10.47;8.70;;;;;;;;;;5082447;28;20276;-84
2022/10/01 02:00:23;;;;;;;9.53;8.50;;;;;;;;;;5048841;28;20282;-83
2022/10/01 02:02:50;;;;;;;10.20;8.40;;;;;;;;;;5058100;28;20278;-88
2022/10/01 02:05:19;;;;;;;9.50;8.07;;;;;;;;;;5075023;28;20239;-89
2022/10/01 02:07:45;;;;;;;10.10;7.97;;;;;;;;;;5073890;28;20175;-88
2022/10/01 02:10:28;;;;;;;9.30;7.80;;;;;;;;;;5073365;28;20234;-87
2022/10/01 02:13:00;;;;;;;10.80;7.93;;;;;;;;;;5075053;28;20175;-88
2022/10/01 02:15:45;;;;;;;8.63;7.43;;;;;;;;;;5076370;28;20191;-84
2022/10/01 02:18:21;;;;;;;8.10;7.30;;;;;;;;;;5071391;28;20207;-84
2022/10/01 02:20:54;;;;;;;9.83;8.10;;;;;;;;;;5073492;28;20274;-84
2022/10/01 02:23:26;;;;;;;8.70;7.47;;;;;;;;;;5074223;28;20224;-83
2022/10/01 02:25:57;;;;;;;9.63;7.90;;;;;;;;;;5074284;28;20215;-84
2022/10/01 02:28:23;;;;;;;8.70;6.67;;;;;;;;;;5073357;28;20202;-84
2022/10/01 02:30:53;;;;;;;9.03;6.50;;;;;;;;;;5073556;28;20195;-85
2022/10/01 02:33:24;;;;;;;10.87;7.33;;;;;;;;;;5074417;28;20191;-84
2022/10/01 02:35:52;;;;;;;9.87;7.30;;;;;;;;;;5072944;28;20190;-84
2022/10/01 02:38:21;;;;;;;8.07;6.80;;;;;;;;;;5064902;28;20231;-84
2022/10/01 02:40:47;;;;;;;9.83;7.60;;;;;;;;;;5073023;28;20187;-87
2022/10/01 02:43:18;;;;;;;7.53;6.10;;;;;;;;;;5073631;28;20179;-89
2022/10/01 02:45:46;;;;;;;8.17;6.33;;;;;;;;;;5073053;28;20207;-88
2022/10/01 02:48:16;;;;;;;6.77;6.07;;;;;;;;;;5073217;28;20175;-83
2022/10/01 02:50:45;;;;;;;7.80;6.13;;;;;;;;;;5073218;28;20250;-84
2022/10/01 02:53:24;;;;;;;6.07;5.50;;;;;;;;;;5072332;28;20187;-83
2022/10/01 02:55:50;;;;;;;6.20;5.60;;;;;;;;;;5062465;28;20276;-81
2022/10/01 02:58:17;;;;;;;5.47;4.90;;;;;;;;;;5054431;28;20190;-80
2022/10/01 03:00:44;;;;;;;6.73;4.77;;;;;;;;;;5062302;28;20198;-81
2022/10/01 03:03:10;;;;;;;5.03;4.53;;;;;;;;;;5072693;28;20184;-81
2022/10/01 03:05:36;;;;;;;6.30;4.30;;;;;;;;;;5057199;28;20207;-81
2022/10/01 03:08:02;;;;;;;6.03;4.20;;;;;;;;;;5069316;28;20201;-81
2022/10/01 03:10:28;;;;;;;4.17;3.77;;;;;;;;;;5071376;28;20288;-81
2022/10/01 03:12:55;;;;;;;4.40;4.00;;;;;;;;;;5054705;28;20226;-81
2022/10/01 03:15:21;;;;;;;7.47;3.73;;;;;;;;;;5072504;28;20192;-81
2022/10/01 03:17:54;;;;;;;4.87;3.60;;;;;;;;;;5056689;28;20183;-80
2022/10/01 03:20:20;;;;;;;3.70;3.00;;;;;;;;;;5058103;28;20202;-86
2022/10/01 03:22:47;;;;;;;4.23;3.30;;;;;;;;;;5072897;28;20282;-86
2022/10/01 03:25:14;;;;;;;3.80;3.50;;;;;;;;;;5072104;28;20207;-85
2022/10/01 03:27:40;;;;;;;3.60;3.27;;;;;;;;;;5073078;28;20232;-88
2022/10/01 03:30:06;;;;;;;3.40;3.10;;;;;;;;;;5072390;28;20214;-86
2022/10/01 03:32:32;;;;;;;3.83;3.47;;;;;;;;;;5072427;28;20177;-85
2022/10/01 03:34:58;;;;;;;3.70;3.40;;;;;;;;;;5073648;28;20230;-86
2022/10/01 03:37:25;;;;;;;5.57;3.67;;;;;;;;;;5072639;28;20233;-81
2022/10/01 03:39:51;;;;;;;3.90;3.50;;;;;;;;;;5072642;28;20229;-80
2022/10/01 03:42:17;;;;;;;3.73;3.43;;;;;;;;;;5072828;28;20187;-80
2022/10/01 03:44:43;;;;;;;3.47;3.17;;;;;;;;;;5072375;28;20238;-80
2022/10/01 03:47:09;;;;;;;4.00;3.60;;;;;;;;;;5071080;28;20183;-81
2022/10/01 03:49:35;;;;;;;4.40;3.67;;;;;;;;;;5053080;28;20267;-78
2022/10/01 03:52:02;;;;;;;3.67;3.37;;;;;;;;;;5052210;28;20222;-78
2022/10/01 03:54:30;;;;;;;3.47;3.13;;;;;;;;;;5048956;28;20188;-80
2022/10/01 03:56:55;;;;;;;3.83;3.53;;;;;;;;;;5054851;28;20184;-81
2022/10/01 03:59:21;;;;;;;3.80;3.37;;;;;;;;;;5055775;28;20178;-81
2022/10/01 04:01:48;;;;;;;3.97;3.57;;;;;;;;;;5072099;28;20188;-81
2022/10/01 04:04:14;;;;;;;3.77;3.47;;;;;;;;;;5073570;28;20172;-81
2022/10/01 04:06:40;;;;;;;3.90;3.40;;;;;;;;;;5071886;28;20187;-80
2022/10/01 04:09:08;;;;;;;3.87;3.57;;;;;;;;;;5071943;28;20223;-80
2022/10/01 04:11:34;;;;;;;3.87;3.50;;;;;;;;;;5072419;28;20191;-86
2022/10/01 04:14:00;;;;;;;3.90;3.60;;;;;;;;;;5073222;28;20191;-85
2022/10/01 04:16:26;;;;;;;3.57;3.27;;;;;;;;;;5063929;28;20195;-85
2022/10/01 04:18:52;;;;;;;4.77;3.50;;;;;;;;;;5035858;28;20180;-85
2022/10/01 04:21:18;;;;;;;3.70;3.40;;;;;;;;;;5050955;28;20234;-86
2022/10/01 04:23:44;;;;;;;3.83;3.53;;;;;;;;;;5079972;28;20183;-86
2022/10/01 04:26:10;;;;;;;3.70;3.13;;;;;;;;;;5074556;28;20226;-86
2022/10/01 04:28:36;;;;;;;3.77;3.47;;;;;;;;;;5070807;28;20187;-84
2022/10/01 04:33:47;;;;;;;3.90;3.60;;;;;;;;;;5076429;28;20278;-85
2022/10/01 04:36:13;;;;;;;3.67;3.37;;;;;;;;;;5059169;28;20211;-87
2022/10/01 04:38:39;;;;;;;3.90;3.47;;;;;;;;;;5075405;28;20187;-86
2022/10/01 04:41:06;;;;;;;5.17;3.60;;;;;;;;;;5058826;28;20267;-87
2022/10/01 04:43:32;;;;;;;3.93;3.40;;;;;;;;;;5075149;28;20232;-81
2022/10/01 04:45:58;;;;;;;3.27;3.07;;;;;;;;;;5074946;28;20214;-81
2022/10/01 04:48:24;;;;;;;4.97;3.40;;;;;;;;;;5075457;28;20198;-81
2022/10/01 04:50:50;;;;;;;3.33;3.00;;;;;;;;;;5074682;28;20187;-82
2022/10/01 04:53:16;;;;;;;3.60;3.30;;;;;;;;;;5047239;28;20191;-82
2022/10/01 04:55:42;;;;;;;4.13;3.00;;;;;;;;;;5074155;28;20183;-82
2022/10/01 04:58:08;;;;;;;3.10;2.90;;;;;;;;;;5056598;28;20187;-83
2022/10/01 05:00:34;;;;;;;3.40;3.10;;;;;;;;;;5069115;28;20176;-79
2022/10/01 05:03:00;;;;;;;3.20;3.00;;;;;;;;;;5071960;28;20271;-79
2022/10/01 05:05:28;;;;;;;2.80;2.60;;;;;;;;;;5044101;28;20214;-79
2022/10/01 05:07:54;;;;;;;3.93;2.63;;;;;;;;;;5060655;28;20175;-80
2022/10/01 05:10:21;;;;;;;3.37;3.07;;;;;;;;;;5067163;28;20228;-80
2022/10/01 05:12:47;;;;;;;3.60;3.30;;;;;;;;;;5065985;28;20171;-80
2022/10/01 05:15:14;;;;;;;3.20;2.90;;;;;;;;;;5063794;28;20172;-80
2022/10/01 05:17:40;;;;;;;3.37;3.07;;;;;;;;;;5064135;28;20176;-83
2022/10/01 05:20:07;;;;;;;3.73;3.40;;;;;;;;;;5047080;28;20278;-82
2022/10/01 05:22:33;;;;;;;4.40;3.07;;;;;;;;;;5051198;28;20299;-83
2022/10/01 05:24:59;;;;;;;3.70;3.40;;;;;;;;;;5048063;28;20201;-82
2022/10/01 05:27:29;;;;;;;4.20;3.80;;;;;;;;;;5046867;28;20184;-82
2022/10/01 05:29:56;;;;;;;5.03;4.53;;;;;;;;;;5064235;28;20175;-81
2022/10/01 05:32:22;;;;;;;7.83;5.87;;;;;;;;;;5048547;28;20207;-80
2022/10/01 05:34:48;;;;;;;7.83;5.97;;;;;;;;;;5064927;28;20183;-83
2022/10/01 05:37:18;;;;;;;9.03;6.37;;;;;;;;;;5063545;28;20187;-83
2022/10/01 05:39:44;;;;;;;8.50;6.03;;;;;;;;;;5064152;28;20183;-83
2022/10/01 05:42:10;;;;;;;8.50;5.33;;;;;;;;;;5047870;28;20214;-82
2022/10/01 05:44:44;;;;;;;8.57;6.03;;;;;;;;;;5048828;28;20221;-83
2022/10/01 05:47:12;;;;;;;9.30;5.63;;;;;;;;;;5047836;28;20193;-83
2022/10/01 05:49:41;;;;;;;5.20;4.70;;;;;;;;;;5064204;28;20327;-83
2022/10/01 05:52:09;;;;;;;8.07;6.20;;;;;;;;;;5066738;28;20180;-80
2022/10/01 05:54:35;;;;;;;6.73;5.90;;;;;;;;;;5065789;28;20221;-80
2022/10/01 05:57:06;;;;;;;9.53;6.83;;;;;;;;;;5065467;28;20181;-80
2022/10/01 05:59:32;;;;;;;8.80;7.07;;;;;;;;;;5061378;28;20184;-80
2022/10/01 06:01:58;;;;;;;9.13;7.47;;;;;;;;;;5062403;28;20178;-80
2022/10/01 06:04:24;;;;;;;11.07;8.40;;;;;;;;;;5064342;28;20414;-80
2022/10/01 06:06:53;;;;;;;9.83;7.70;;;;;;;;;;5063723;28;20172;-88
2022/10/01 06:09:19;;;;;;;7.97;7.17;;;;;;;;;;5064503;28;20222;-88
2022/10/01 06:11:47;;;;;;;10.37;7.67;;;;;;;;;;5064780;28;20179;-88
2022/10/01 06:14:13;;;;;;;10.00;8.50;;;;;;;;;;5063484;28;20176;-88
2022/10/01 06:16:39;;;;;;;10.27;9.10;;;;;;;;;;5054387;28;20172;-83
2022/10/01 06:19:05;;;;;;;12.30;9.30;;;;;;;;;;5046245;28;20187;-83
2022/10/01 06:21:34;;;;;;;10.93;9.30;;;;;;;;;;5046076;28;20232;-83
2022/10/01 06:24:00;;;;;;;11.03;9.03;;;;;;;;;;5051029;28;20187;-83
2022/10/01 06:26:27;;;;;;;9.50;7.70;;;;;;;;;;5058286;28;20238;-89
2022/10/01 06:28:53;;;;;;;7.80;6.30;;;;;;;;;;5037254;28;20176;-87
2022/10/01 06:31:20;;;;;;;7.47;6.67;;;;;;;;;;5037256;28;20242;-89
2022/10/01 06:33:46;;;;;;;8.33;6.27;;;;;;;;;;5053331;28;20176;-82
2022/10/01 06:36:12;;;;;;;7.03;6.33;;;;;;;;;;5054497;28;20180;-83
2022/10/01 06:38:38;;;;;;;8.10;7.30;;;;;;;;;;5049192;28;20278;-83
2022/10/01 06:41:04;;;;;;;8.90;7.60;;;;;;;;;;5055992;28;20187;-79
2022/10/01 06:43:31;;;;;;;9.43;7.80;;;;;;;;;;5058614;28;20195;-80
2022/10/01 06:46:00;;;;;;;11.50;8.97;;;;;;;;;;5057247;28;20206;-80
2022/10/01 06:48:27;;;;;;;12.80;10.60;;;;;;;;;;5070036;28;20195;-80
2022/10/01 06:50:54;;;;;;;13.97;11.50;;;;;;;;;;5056573;28;20195;-80
2022/10/01 06:53:20;;;;;;;16.33;12.67;;;;;;;;;;5073148;28;20179;-80
2022/10/01 06:55:48;;;;;;;18.60;15.00;;;;;;;;;;5056296;28;20193;-89
2022/10/01 06:58:16;;;;;;;18.37;15.33;;;;;;;;;;5073384;28;20211;-80
2022/10/01 07:00:42;;;;;;;19.83;15.43;;;;;;;;;;5073170;28;20273;-80
2022/10/01 07:03:14;;;;;;;20.10;15.53;;;;;;;;;;5071622;28;20175;-80
2022/10/01 07:05:40;;;;;;;19.87;16.70;;;;;;;;;;5052745;28;20258;-80
2022/10/01 07:08:06;;;;;;;17.60;14.00;;;;;;;;;;5053224;28;20275;-80
2022/10/01 07:10:34;;;;;;;21.50;16.37;;;;;;;;;;5049043;28;20230;-80
2022/10/01 07:13:11;;;;;;;16.77;14.67;;;;;;;;;;5073026;28;20183;-80
2022/10/01 07:15:37;;;;;;;19.30;15.63;;;;;;;;;;5064196;28;20189;-83
2022/10/01 07:18:03;;;;;;;17.47;15.07;;;;;;;;;;5053715;28;20218;-83
2022/10/01 07:20:34;;;;;;;21.50;15.33;;;;;;;;;;5052733;28;20267;-83
2022/10/01 07:23:01;;;;;;;20.00;16.63;;;;;;;;;;5068510;28;20190;-83
2022/10/01 07:25:27;;;;;;;22.87;16.30;;;;;;;;;;5072620;28;20234;-83
2022/10/01 07:27:54;;;;;;;17.93;15.93;;;;;;;;;;5064744;28;20181;-83
2022/10/01 07:30:22;;;;;;;21.03;16.80;;;;;;;;;;5040832;28;20261;-83
2022/10/01 07:32:48;;;;;;;21.13;16.57;;;;;;;;;;5052789;28;20186;-83
2022/10/01 07:35:15;;;;;;;19.93;17.00;;;;;;;;;;5053909;28;20263;-83
2022/10/01 07:37:41;;;;;;;18.83;16.83;;;;;;;;;;5054005;28;20180;-83
2022/10/01 07:40:07;;;;;;;19.50;15.80;;;;;;;;;;5053642;28;20181;-83
2022/10/01 07:42:34;;;;;;;20.23;16.87;;;;;;;;;;5052658;28;20315;-83
2022/10/01 07:45:03;;;;;;;18.93;15.70;;;;;;;;;;5052646;28;20216;-83
2022/10/01 07:47:29;;;;;;;21.67;16.50;;;;;;;;;;5036563;28;20184;-83
2022/10/01 07:49:55;;;;;;;21.40;16.77;;;;;;;;;;5052685;28;20186;-83
2022/10/01 07:52:21;;;;;;;21.90;18.47;;;;;;;;;;5036074;28;20184;-83
2022/10/01 07:54:47;;;;;;;20.73;16.90;;;;;;;;;;5055420;28;20187;-83
2022/10/01 07:57:14;;;;;;;19.70;17.67;;;;;;;;;;5059705;28;20183;-83
2022/10/01 07:59:40;;;;;;;22.70;18.47;;;;;;;;;;5059807;28;20187;-83
2022/10/01 08:02:13;;;;;;;20.17;17.17;;;;;;;;;;5076067;28;20178;-83
2022/10/01 08:07:24;;;;;;;21.53;17.80;;;;;;;;;;5077544;28;20237;-89
2022/10/01 08:09:50;;;;;;;18.43;16.53;;;;;;;;;;5077260;28;20266;-88
2022/10/01 08:12:16;;;;;;;18.63;16.43;;;;;;;;;;5059266;28;20195;-90
2022/10/01 08:14:42;;;;;;;19.07;16.93;;;;;;;;;;5075945;28;20182;-90
2022/10/01 08:17:08;;;;;;;18.83;16.90;;;;;;;;;;5073334;28;20171;-90
2022/10/01 08:19:36;;;;;;;19.17;17.07;;;;;;;;;;5039680;28;20176;-90
2022/10/01 08:22:02;;;;;;;19.47;16.40;;;;;;;;;;5041062;28;20188;-83
2022/10/01 08:24:29;;;;;;;17.60;16.00;;;;;;;;;;5074426;22;20241;-83
2022/10/01 08:26:56;;;;;;;18.87;16.37;;;;;;;;;;5078946;28;20242;-84
2022/10/01 08:29:22;;;;;;;19.17;17.03;;;;;;;;;;5075639;28;20184;-83
2022/10/01 08:31:49;;;;;;;20.57;16.47;;;;;;;;;;5076967;28;20199;-83
2022/10/01 08:34:14;;;;;;;18.73;16.63;;;;;;;;;;5076829;28;20183;-83
2022/10/01 08:36:40;;;;;;;18.77;16.37;;;;;;;;;;5080954;28;20184;-89
2022/10/01 08:39:07;;;;;;;19.07;16.33;;;;;;;;;;5056884;28;20188;-89
2022/10/01 08:41:42;;;;;;;20.20;16.13;;;;;;;;;;5055086;28;20206;-89
2022/10/01 08:44:13;;;;;;;17.93;16.03;;;;;;;;;;5080657;28;20241;-88
2022/10/01 08:46:40;;;;;;;21.07;15.97;;;;;;;;;;5096388;28;20233;-89
2022/10/01 08:49:12;;;;;;;20.43;16.33;;;;;;;;;;5077474;28;20175;-89
2022/10/01 08:51:44;;;;;;;18.97;16.47;;;;;;;;;;5077488;28;20206;-89
2022/10/01 08:54:10;;;;;;;19.27;16.70;;;;;;;;;;5075651;28;20179;-83
2022/10/01 08:56:38;;;;;;;23.77;17.43;;;;;;;;;;5075262;28;20201;-83
2022/10/01 08:59:17;;;;;;;20.50;18.35;;;;;;;;;;5075513;28;20402;-84
2022/10/01 09:01:43;;;;;;;19.42;17.45;;;;;;;;;;5074099;28;20417;-83
2022/10/01 09:04:09;;;;;;;17.50;15.77;;;;;;;;;;5074592;28;20440;-83
2022/10/01 09:06:37;;;;;;;16.67;14.87;;;;;;;;;;5074463;28;20207;-83
2022/10/01 09:09:12;;;;;;;18.37;14.47;;;;;;;;;;5075186;28;20202;-83
2022/10/01 09:11:51;;;;;;;14.70;13.33;;;;;;;;;;5071710;28;20191;-84
2022/10/01 09:14:27;;;;;;;14.70;13.10;;;;;;;;;;5056192;28;20195;-83
2022/10/01 09:16:53;;;;;;;13.60;11.40;;;;;;;;;;5054987;28;20210;-84
2022/10/01 09:19:45;;;;;;;15.87;12.10;;;;;;;;;;5054669;28;20176;-84
2022/10/01 09:22:18;;;;;;;14.13;11.77;;;;;;;;;;5055933;28;20419;-83
2022/10/01 09:24:53;;;;;;;13.37;11.43;;;;;;;;;;5086597;28;20222;-84
2022/10/01 09:27:23;;;;;;;12.53;11.03;;;;;;;;;;5094655;28;20174;-83
2022/10/01 09:30:25;;;;;;;14.97;11.67;;;;;;;;;;5093466;28;20178;-83
2022/10/01 09:32:54;;;;;;;13.30;10.40;;;;;;;;;;5016549;28;20176;-84
2022/10/01 09:35:26;;;;;;;12.70;11.30;;;;;;;;;;5048938;28;20190;-83
2022/10/01 09:37:57;;;;;;;14.77;10.73;;;;;;;;;;5073945;28;20241;-83
2022/10/01 09:40:29;;;;;;;17.90;11.30;;;;;;;;;;5075412;28;20214;-83
2022/10/01 09:42:55;;;;;;;12.93;9.93;;;;;;;;;;5079216;28;20182;-84
2022/10/01 09:45:22;;;;;;;13.80;10.57;;;;;;;;;;5077173;28;20207;-81
2022/10/01 09:47:50;;;;;;;13.23;9.80;;;;;;;;;;5094404;28;20197;-81
2022/10/01 09:50:24;;;;;;;13.07;9.87;;;;;;;;;;5076497;28;20228;-81
2022/10/01 09:52:51;;;;;;;12.77;10.10;;;;;;;;;;5076795;28;20178;-81
2022/10/01 09:55:17;;;;;;;16.97;10.00;;;;;;;;;;5057451;28;20192;-83
2022/10/01 09:58:01;;;;;;;10.80;9.10;;;;;;;;;;5063344;28;20185;-83
2022/10/01 10:00:28;;;;;;;15.33;9.23;;;;;;;;;;5076311;28;20187;-83
2022/10/01 10:02:55;;;;;;;23.93;18.37;;;;;;;;;;5073646;28;20182;-83
2022/10/01 10:05:23;;;;;;;16.33;10.97;;;;;;;;;;5077666;28;20243;-83
2022/10/01 10:07:51;;;;;;;13.50;8.23;;;;;;;;;;5053730;28;20202;-84
2022/10/01 10:10:18;;;;;;;10.97;6.67;;;;;;;;;;5088601;28;20190;-84
2022/10/01 10:12:44;;;;;;;11.87;5.67;;;;;;;;;;5091688;28;20175;-84
2022/10/01 10:15:21;;;;;;;9.73;4.07;;;;;;;;;;5086803;28;20205;-84
2022/10/01 10:17:50;;;;;;;6.90;2.13;;;;;;;;;;5094312;28;20174;-83
2022/10/01 10:20:32;;;;;;;8.40;3.17;;;;;;;;;;5090192;28;20201;-83
2022/10/01 10:23:08;;;;;;;6.50;2.40;;;;;;;;;;5092932;28;20184;-83
2022/10/01 10:25:34;;;;;;;5.70;2.20;;;;;;;;;;5061898;28;20318;-84
2022/10/01 10:28:01;;;;;;;13.70;3.03;;;;;;;;;;5057258;28;20180;-84
2022/10/01 10:30:28;;;;;;;8.07;2.07;;;;;;;;;;5050478;28;20195;-84
2022/10/01 10:33:01;;;;;;;3.87;1.67;;;;;;;;;;5093071;28;20189;-84
2022/10/01 10:35:27;;;;;;;8.87;2.50;;;;;;;;;;5080648;28;20189;-82
2022/10/01 10:37:55;;;;;;;6.13;1.90;;;;;;;;;;5056517;28;20187;-88
2022/10/01 10:40:23;;;;;;;6.33;2.17;;;;;;;;;;5083889;28;20186;-87
2022/10/01 10:42:50;;;;;;;6.03;2.40;;;;;;;;;;5087783;28;20184;-89
2022/10/01 10:45:22;;;;;;;7.23;2.07;;;;;;;;;;5063137;28;20223;-88
2022/10/01 10:47:50;;;;;;;9.70;2.47;;;;;;;;;;5053919;28;20229;-89
2022/10/01 10:50:28;;;;;;;11.27;2.80;;;;;;;;;;5070579;28;20179;-84
2022/10/01 10:52:55;;;;;;;9.63;2.80;;;;;;;;;;5086203;28;20225;-84
2022/10/01 10:55:24;;;;;;;6.07;2.60;;;;;;;;;;5081795;28;20175;-84
2022/10/01 10:57:51;;;;;;;10.43;2.60;;;;;;;;;;5093106;28;20184;-84
2022/10/01 11:00:25;;;;;;;9.33;2.70;;;;;;;;;;5084584;28;20237;-85
2022/10/01 11:02:56;;;;;;;8.57;2.93;;;;;;;;;;5083299;28;20179;-84
2022/10/01 11:05:24;;;;;;;10.77;2.43;;;;;;;;;;5084181;28;20202;-84
2022/10/01 11:07:53;;;;;;;10.57;2.27;;;;;;;;;;5067609;28;20179;-87
2022/10/01 11:10:22;;;;;;;10.60;2.60;;;;;;;;;;5070885;28;20185;-81
2022/10/01 11:13:07;;;;;;;9.43;2.60;;;;;;;;;;5092547;28;20179;-81
2022/10/01 11:15:33;;;;;;;13.23;2.60;;;;;;;;;;5080283;28;20182;-81
2022/10/01 11:18:09;;;;;;;11.10;2.63;;;;;;;;;;5092569;28;20238;-81
2022/10/01 11:20:38;;;;;;;6.70;2.20;;;;;;;;;;5068686;28;20191;-81
2022/10/01 11:23:16;;;;;;;11.83;2.30;;;;;;;;;;5056901;28;20187;-84
2022/10/01 11:25:45;;;;;;;9.00;2.57;;;;;;;;;;5067795;28;20214;-85
2022/10/01 11:28:35;;;;;;;9.97;2.50;;;;;;;;;;5089943;28;20233;-85
2022/10/01 11:31:07;;;;;;;11.60;2.50;;;;;;;;;;5039950;28;20186;-82
2022/10/01 11:33:36;;;;;;;8.27;2.60;;;;;;;;;;5096345;28;20271;-81
2022/10/01 11:36:28;;;;;;;11.07;2.20;;;;;;;;;;5086874;28;20281;-82
2022/10/01 11:39:03;;;;;;;8.97;2.37;;;;;;;;;;5073783;28;20198;-82
2022/10/01 11:41:47;;;;;;;9.03;2.50;;;;;;;;;;5089901;28;20189;-82
2022/10/01 11:44:14;;;;;;;10.73;2.57;;;;;;;;;;5097477;28;20228;-82
2022/10/01 11:46:53;;;;;;;10.57;2.33;;;;;;;;;;5082586;28;20211;-82
2022/10/01 11:49:25;;;;;;;8.57;2.50;;;;;;;;;;5081784;28;20174;-81
2022/10/01 11:51:56;;;;;;;9.77;2.47;;;;;;;;;;5095447;28;20216;-82
2022/10/01 11:54:25;;;;;;;9.43;2.20;;;;;;;;;;5096308;28;20167;-82
2022/10/01 12:00:09;;;;;;;10.33;2.47;;;;;;;;;;5041767;28;20271;-85
2022/10/01 12:02:35;;;;;;;10.20;2.30;;;;;;;;;;5030643;28;20216;-85
2022/10/01 12:05:05;;;;;;;5.97;1.83;;;;;;;;;;5049368;28;20243;-85
2022/10/01 12:07:36;;;;;;;10.77;2.43;;;;;;;;;;5074380;28;20186;-85
2022/10/01 12:10:12;;;;;;;8.67;2.13;;;;;;;;;;5076335;28;20175;-84
2022/10/01 12:12:40;;;;;;;7.47;2.10;;;;;;;;;;5075905;28;20926;-85
2022/10/01 12:15:12;;;;;;;6.73;2.03;;;;;;;;;;5072947;28;20248;-82
2022/10/01 12:17:40;;;;;;;6.57;2.00;;;;;;;;;;5076246;28;20214;-82
2022/10/01 12:20:15;;;;;;;7.10;2.30;;;;;;;;;;5075692;28;20278;-82
2022/10/01 12:22:41;;;;;;;12.47;2.30;;;;;;;;;;5075838;28;20183;-82
2022/10/01 12:25:14;;;;;;;9.57;2.40;;;;;;;;;;5054903;28;20451;-81
2022/10/01 12:27:43;;;;;;;10.53;2.20;;;;;;;;;;5073704;28;20236;-81
2022/10/01 12:30:18;;;;;;;8.07;2.27;;;;;;;;;;5075447;28;20225;-82
2022/10/01 12:32:44;;;;;;;7.27;2.57;;;;;;;;;;5091377;28;20219;-82
2022/10/01 12:35:19;;;;;;;11.27;3.00;;;;;;;;;;5095619;28;20174;-82
2022/10/01 12:37:48;;;;;;;8.93;2.50;;;;;;;;;;5080878;28;20198;-82
2022/10/01 12:40:20;;;;;;;6.03;2.10;;;;;;;;;;5076547;28;20264;-82
2022/10/01 12:43:05;;;;;;;8.37;2.30;;;;;;;;;;5086133;28;20236;-81
2022/10/01 12:45:37;;;;;;;10.07;2.10;;;;;;;;;;5067209;28;20246;-82
2022/10/01 12:48:04;;;;;;;8.17;2.23;;;;;;;;;;5091267;28;20218;-84
2022/10/01 12:50:37;;;;;;;7.43;2.03;;;;;;;;;;5087730;28;20188;-85
2022/10/01 12:53:09;;;;;;;9.00;2.40;;;;;;;;;;5073274;28;20175;-88
2022/10/01 12:55:48;;;;;;;8.87;2.20;;;;;;;;;;5064316;28;20194;-88
2022/10/01 12:58:27;;;;;;;9.53;2.40;;;;;;;;;;5088538;28;20178;-88
2022/10/01 13:01:04;;;;;;;11.57;2.63;;;;;;;;;;5069042;28;20195;-81
2022/10/01 13:03:53;;;;;;;11.23;2.80;;;;;;;;;;5057128;28;20464;-81
2022/10/01 13:06:26;;;;;;;11.23;2.78;;;;;;;;;;5026191;28;20432;-81
2022/10/01 13:08:58;;;;;;;13.63;3.00;;;;;;;;;;5055492;28;20234;-81
2022/10/01 13:11:31;;;;;;;8.53;2.60;;;;;;;;;;5054842;28;20183;-81
2022/10/01 13:13:59;;;;;;;15.10;2.73;;;;;;;;;;5064647;28;20195;-81
2022/10/01 13:16:28;;;;;;;9.80;2.47;;;;;;;;;;5067827;28;20206;-81
2022/10/01 13:19:11;;;;;;;11.90;2.60;;;;;;;;;;5094422;28;20261;-81
2022/10/01 13:21:56;;;;;;;9.63;2.50;;;;;;;;;;5087016;28;20176;-84
2022/10/01 13:24:32;;;;;;;12.80;2.47;;;;;;;;;;5054408;28;20238;-84
2022/10/01 13:27:04;;;;;;;11.90;2.90;;;;;;;;;;5053805;28;20430;-84
2022/10/01 13:29:42;;;;;;;9.27;2.63;;;;;;;;;;5068322;28;20179;-84
2022/10/01 13:32:24;;;;;;;11.17;2.80;;;;;;;;;;5075080;28;20170;-84
2022/10/01 13:34:51;;;;;;;12.10;2.90;;;;;;;;;;5074512;28;20199;-84
2022/10/01 13:37:18;;;;;;;8.80;2.30;;;;;;;;;;5078334;28;20244;-81
2022/10/01 13:39:45;;;;;;;10.17;2.80;;;;;;;;;;5094324;28;20202;-81
2022/10/01 13:42:19;;;;;;;11.63;2.57;;;;;;;;;;5091290;28;20179;-81
2022/10/01 13:44:45;;;;;;;12.00;2.60;;;;;;;;;;5081392;28;20265;-81
2022/10/01 13:47:12;;;;;;;12.27;2.70;;;;;;;;;;5091852;28;20178;-81
2022/10/01 13:49:41;;;;;;;12.80;2.30;;;;;;;;;;5073934;28;20175;-81
2022/10/01 13:52:07;;;;;;;9.90;2.73;;;;;;;;;;5074393;28;20175;-88
2022/10/01 13:54:37;;;;;;;8.93;2.37;;;;;;;;;;5077430;28;20179;-82
2022/10/01 13:57:22;;;;;;;12.13;2.50;;;;;;;;;;5074900;28;20261;-81
2022/10/01 13:59:56;;;;;;;10.83;2.50;;;;;;;;;;5053787;28;20270;-81
2022/10/01 14:02:28;;;;;;;11.53;2.80;;;;;;;;;;5057510;28;20206;-82
2022/10/01 14:04:55;;;;;;;10.33;2.70;;;;;;;;;;5092805;28;20178;-81
2022/10/01 14:07:25;;;;;;;11.73;2.80;;;;;;;;;;5074539;28;20176;-82
2022/10/01 14:09:52;;;;;;;9.93;2.70;;;;;;;;;;5093482;28;20175;-85
2022/10/01 14:18:04;;;;;;;8.53;2.90;;;;;;;;;;5064620;28;20287;-84
2022/10/01 14:20:33;;;;;;;9.07;2.60;;;;;;;;;;5068502;28;20213;-85
2022/10/01 14:23:10;;;;;;;8.27;2.17;;;;;;;;;;5064882;28;20186;-90
2022/10/01 14:25:55;;;;;;;7.87;2.33;;;;;;;;;;5082645;28;20276;-89
2022/10/01 14:28:40;;;;;;;14.57;2.90;;;;;;;;;;5081063;28;20189;-88
2022/10/01 14:31:06;;;;;;;8.33;2.70;;;;;;;;;;5094722;28;20224;-89
2022/10/01 14:33:58;;;;;;;13.70;2.83;;;;;;;;;;5085465;28;20187;-88
2022/10/01 14:36:36;;;;;;;8.97;2.30;;;;;;;;;;5073851;28;20194;-88
2022/10/01 14:39:13;;;;;;;13.57;2.90;;;;;;;;;;5092827;28;20185;-88
2022/10/01 14:41:39;;;;;;;9.30;2.20;;;;;;;;;;5093141;28;20181;-88
2022/10/01 14:44:24;;;;;;;9.27;2.37;;;;;;;;;;5081271;28;20229;-84
2022/10/01 14:46:54;;;;;;;10.40;2.80;;;;;;;;;;5054219;28;20207;-84
2022/10/01 14:49:22;;;;;;;13.53;2.77;;;;;;;;;;5078534;28;20211;-85
2022/10/01 14:51:50;;;;;;;8.03;2.27;;;;;;;;;;5073646;28;20178;-85
2022/10/01 14:54:16;;;;;;;13.70;2.33;;;;;;;;;;5064422;28;20184;-85
2022/10/01 14:56:42;;;;;;;9.67;2.33;;;;;;;;;;5053226;28;20249;-84
2022/10/01 14:59:11;;;;;;;10.93;2.33;;;;;;;;;;5053466;28;20180;-85
2022/10/01 15:01:37;;;;;;;7.53;2.47;;;;;;;;;;5053107;28;20176;-85